createdAt,value
2019-04-20T00:00:43.032Z,65.97
2019-04-20T00:01:38.898Z,67.81
2019-04-20T00:02:37.889Z,67.74
2019-04-20T00:03:41.629Z,67.60
2019-04-20T00:04:39.062Z,67.94
2019-04-20T00:05:39.127Z,68.15
2019-04-20T00:06:45.899Z,67.23
2019-04-20T00:07:39.700Z,66.82
2019-04-20T00:08:40.889Z,66.92
2019-04-20T00:09:39.955Z,68.05
2019-04-20T00:10:47.593Z,68.25
2019-04-20T00:11:50.765Z,68.15
2019-04-20T00:12:53.432Z,68.15
2019-04-20T00:13:49.849Z,67.94
2019-04-20T00:14:40.505Z,68.35
2019-04-20T00:15:38.924Z,68.38
2019-04-20T00:16:37.862Z,69.20
2019-04-20T00:17:39.375Z,69.20
2019-04-20T00:18:45.931Z,69.10
2019-04-20T00:19:44.036Z,68.59
2019-04-20T00:20:40.300Z,68.38
2019-04-20T00:21:42.727Z,68.18
2019-04-20T00:22:45.222Z,68.38
2019-04-20T00:23:42.214Z,67.77
2019-04-20T00:24:39.297Z,69.31
2019-04-20T00:25:49.801Z,69.41
2019-04-20T00:27:28.447Z,69.00
2019-04-20T00:27:59.539Z,69.10
2019-04-20T00:28:56.197Z,68.18
2019-04-20T00:29:56.205Z,68.38
2019-04-20T00:31:01.202Z,69.20
2019-04-20T00:31:49.222Z,69.54
2019-04-20T00:32:53.236Z,69.31
2019-04-20T00:33:50.673Z,68.90
2019-04-20T00:34:41.676Z,68.59
2019-04-20T00:35:38.538Z,69.31
2019-04-20T00:36:37.524Z,70.03
2019-04-20T00:37:38.034Z,69.51
2019-04-20T00:38:42.564Z,70.12
2019-04-20T00:39:38.493Z,69.85
2019-04-20T00:40:37.505Z,69.75
2019-04-20T00:41:45.192Z,69.13
2019-04-20T00:42:45.163Z,69.85
2019-04-20T00:43:40.454Z,69.54
2019-04-20T00:44:40.733Z,69.75
2019-04-20T00:45:47.668Z,70.67
2019-04-20T00:46:53.153Z,69.85
2019-04-20T00:47:47.771Z,69.24
2019-04-20T00:48:48.529Z,69.34
2019-04-20T00:49:52.747Z,69.44
2019-04-20T00:50:48.823Z,69.44
2019-04-20T00:52:07.411Z,69.85
2019-04-20T00:52:55.261Z,70.57
2019-04-20T00:53:43.321Z,70.67
2019-04-20T00:54:39.046Z,71.01
2019-04-20T00:55:38.045Z,70.16
2019-04-20T00:56:37.316Z,70.60
2019-04-20T00:57:46.621Z,70.70
2019-04-20T00:58:52.326Z,70.29
2019-04-20T01:00:03.106Z,70.81
2019-04-20T01:01:04.109Z,71.42
2019-04-20T01:02:01.021Z,71.62
2019-04-20T01:02:52.196Z,70.91
2019-04-20T01:03:52.717Z,71.32
2019-04-20T01:05:00.420Z,70.64
2019-04-20T01:05:59.670Z,71.45
2019-04-20T01:06:50.313Z,70.84
2019-04-20T01:07:45.475Z,70.64
2019-04-20T01:08:38.189Z,70.53
2019-04-20T01:09:37.168Z,70.32
2019-04-20T01:10:42.776Z,70.43
2019-04-20T01:11:42.240Z,71.35
2019-04-20T01:12:40.466Z,71.56
2019-04-20T01:13:46.903Z,71.76
2019-04-20T01:14:47.036Z,72.07
2019-04-20T01:15:48.906Z,71.66
2019-04-20T01:16:47.297Z,71.15
2019-04-20T01:17:41.752Z,70.94
2019-04-20T01:18:37.075Z,70.73
2019-04-20T01:19:37.061Z,70.73
2019-04-20T01:20:37.053Z,71.45
2019-04-20T01:21:38.275Z,70.43
2019-04-20T01:22:44.475Z,71.35
2019-04-20T01:23:46.070Z,71.80
2019-04-20T01:24:43.250Z,72.00
2019-04-20T01:25:42.429Z,71.90
2019-04-20T01:26:43.754Z,71.48
2019-04-20T01:27:51.317Z,71.39
2019-04-20T01:28:51.141Z,72.00
2019-04-20T01:29:45.689Z,71.28
2019-04-20T01:30:44.610Z,71.28
2019-04-20T01:31:53.007Z,72.72
2019-04-20T01:32:55.156Z,71.69
2019-04-20T01:33:51.952Z,72.00
2019-04-20T01:34:50.441Z,72.10
2019-04-20T01:35:53.251Z,72.10
2019-04-20T01:36:56.374Z,72.51
2019-04-20T01:37:57.606Z,72.10
2019-04-20T01:38:54.673Z,71.90
2019-04-20T01:39:44.336Z,72.41
2019-04-20T01:40:38.160Z,71.83
2019-04-20T01:41:37.201Z,71.90
2019-04-20T01:42:38.071Z,71.90
2019-04-20T01:43:37.437Z,72.03
2019-04-20T01:44:41.963Z,72.75
2019-04-20T01:45:41.985Z,71.62
2019-04-20T01:46:39.119Z,72.44
2019-04-20T01:47:45.255Z,72.03
2019-04-20T01:48:39.953Z,71.72
2019-04-20T01:49:38.478Z,72.44
2019-04-20T01:50:47.342Z,72.03
2019-04-20T01:51:48.269Z,72.75
2019-04-20T01:52:50.384Z,72.96
2019-04-20T01:53:50.477Z,72.75
2019-04-20T01:54:56.387Z,72.96
2019-04-20T01:55:51.096Z,73.16
2019-04-20T01:56:47.247Z,73.47
2019-04-20T01:57:56.174Z,73.27
2019-04-20T01:58:54.973Z,73.88
2019-04-20T01:59:46.097Z,73.16
2019-04-20T02:00:40.716Z,72.89
2019-04-20T02:01:40.563Z,72.99
2019-04-20T02:02:45.015Z,73.10
2019-04-20T02:03:43.021Z,73.10
2019-04-20T02:04:41.979Z,73.40
2019-04-20T02:05:39.036Z,73.50
2019-04-20T02:06:44.408Z,73.30
2019-04-20T02:07:43.769Z,73.91
2019-04-20T02:08:37.860Z,73.71
2019-04-20T02:09:43.383Z,73.71
2019-04-20T02:10:45.956Z,73.61
2019-04-20T02:11:41.533Z,73.61
2019-04-20T02:12:40.727Z,73.71
2019-04-20T02:13:44.411Z,73.30
2019-04-20T02:14:43.784Z,72.89
2019-04-20T02:15:42.146Z,73.61
2019-04-20T02:16:45.208Z,74.22
2019-04-20T02:17:46.130Z,74.02
2019-04-20T02:18:51.402Z,74.02
2019-04-20T02:19:57.321Z,73.74
2019-04-20T02:20:54.536Z,74.15
2019-04-20T02:21:51.677Z,74.15
2019-04-20T02:22:57.073Z,74.15
2019-04-20T02:23:47.407Z,74.67
2019-04-20T02:24:38.704Z,74.87
2019-04-20T02:25:37.587Z,74.77
2019-04-20T02:26:36.716Z,75.29
2019-04-20T02:27:43.268Z,75.38
2019-04-20T02:29:07.708Z,75.52
2019-04-20T02:30:04.352Z,75.52
2019-04-20T02:31:17.794Z,75.83
2019-04-20T02:33:16.739Z,76.69
2019-04-20T02:34:16.397Z,76.07
2019-04-20T02:35:07.627Z,76.28
2019-04-20T02:37:14.155Z,75.56
2019-04-20T02:38:12.145Z,75.35
2019-04-20T02:39:27.079Z,75.83
2019-04-20T02:40:12.762Z,75.83
2019-04-20T02:41:09.866Z,75.01
2019-04-20T02:42:17.900Z,75.21
2019-04-20T02:43:32.899Z,75.12
2019-04-20T02:44:15.982Z,74.95
2019-04-20T02:46:12.806Z,74.70
2019-04-20T02:49:19.473Z,74.91
2019-04-20T02:50:09.090Z,75.32
2019-04-20T02:51:06.683Z,75.42
2019-04-20T02:52:28.658Z,75.12
2019-04-20T02:53:11.397Z,75.52
2019-04-20T02:55:10.943Z,75.01
2019-04-20T02:56:12.938Z,75.32
2019-04-20T02:57:12.243Z,75.15
2019-04-20T02:58:07.676Z,74.74
2019-04-20T03:01:01.145Z,74.91
2019-04-20T03:01:54.718Z,75.42
2019-04-20T03:02:48.881Z,75.15
2019-04-20T03:03:45.060Z,75.21
2019-04-20T03:04:44.171Z,74.40
2019-04-20T03:05:47.721Z,73.98
2019-04-20T03:06:55.990Z,73.50
2019-04-20T03:07:57.399Z,73.81
2019-04-20T03:08:59.915Z,74.84
2019-04-20T03:09:58.414Z,74.33
2019-04-20T03:11:03.649Z,73.98
2019-04-20T03:12:59.714Z,75.56
2019-04-20T03:13:57.826Z,76.59
2019-04-20T03:14:53.930Z,76.93
2019-04-20T03:15:57.987Z,76.42
2019-04-20T03:16:56.527Z,76.42
2019-04-20T03:17:59.118Z,76.11
2019-04-20T03:18:53.737Z,75.80
2019-04-20T03:19:51.309Z,76.73
2019-04-20T03:21:04.493Z,76.62
2019-04-20T03:22:06.423Z,76.93
2019-04-20T03:23:18.754Z,76.62
2019-04-20T03:24:06.790Z,77.34
2019-04-20T03:25:03.940Z,76.42
2019-04-20T03:25:58.528Z,76.52
2019-04-20T03:26:57.045Z,76.76
2019-04-20T03:28:01.724Z,75.59
2019-04-20T03:28:54.347Z,76.31
2019-04-20T03:29:57.360Z,76.73
2019-04-20T03:33:14.594Z,76.97
2019-04-20T03:34:38.441Z,76.97
2019-04-20T03:35:05.284Z,76.25
2019-04-20T03:36:07.863Z,75.59
2019-04-20T03:37:02.572Z,75.18
2019-04-20T03:38:01.642Z,75.39
2019-04-20T03:38:57.258Z,77.28
2019-04-20T03:39:55.518Z,77.17
2019-04-20T03:40:49.624Z,76.76
2019-04-20T03:41:41.837Z,76.04
2019-04-20T03:42:37.061Z,75.90
2019-04-20T03:43:35.511Z,76.25
2019-04-20T03:44:37.188Z,75.73
2019-04-20T03:45:44.797Z,76.21
2019-04-20T03:46:45.596Z,76.66
2019-04-20T03:47:49.797Z,76.97
2019-04-20T03:48:56.815Z,76.35
2019-04-20T03:49:59.527Z,76.97
2019-04-20T03:50:56.469Z,77.28
2019-04-20T03:51:58.794Z,77.58
2019-04-20T03:52:54.235Z,76.45
2019-04-20T03:53:55.389Z,76.97
2019-04-20T03:54:48.293Z,77.38
2019-04-20T03:55:52.802Z,77.48
2019-04-20T03:56:54.687Z,76.76
2019-04-20T03:57:57.165Z,76.76
2019-04-20T03:58:51.920Z,76.90
2019-04-20T03:59:56.225Z,76.97
2019-04-20T04:00:55.722Z,76.35
2019-04-20T04:02:18.878Z,75.67
2019-04-20T04:03:10.941Z,75.67
2019-04-20T04:04:01.013Z,75.52
2019-04-20T04:04:54.557Z,75.73
2019-04-20T04:05:50.940Z,75.94
2019-04-20T04:06:44.862Z,77.58
2019-04-20T04:07:42.065Z,77.38
2019-04-20T04:08:42.631Z,77.11
2019-04-20T04:09:53.427Z,76.56
2019-04-20T04:10:54.763Z,77.48
2019-04-20T04:11:51.482Z,76.66
2019-04-20T04:12:40.340Z,77.38
2019-04-20T04:13:37.477Z,76.97
2019-04-20T04:14:35.176Z,76.14
2019-04-20T04:15:42.147Z,76.35
2019-04-20T04:16:42.830Z,77.51
2019-04-20T04:17:40.636Z,77.51
2019-04-20T04:18:41.033Z,78.14
2019-04-20T04:19:39.620Z,77.83
2019-04-20T04:20:43.701Z,77.72
2019-04-20T04:21:49.889Z,77.42
2019-04-20T04:22:51.412Z,77.11
2019-04-20T04:23:56.160Z,77.72
2019-04-20T04:24:53.068Z,78.24
2019-04-20T04:25:58.050Z,77.42
2019-04-20T04:26:51.579Z,77.83
2019-04-20T04:27:54.585Z,77.83
2019-04-20T04:28:47.423Z,79.06
2019-04-20T04:29:57.002Z,77.86
2019-04-20T04:30:54.557Z,77.42
2019-04-20T04:32:02.406Z,77.42
2019-04-20T04:33:20.161Z,76.49
2019-04-20T04:34:52.671Z,77.31
2019-04-20T04:35:55.220Z,77.42
2019-04-20T04:37:00.605Z,77.93
2019-04-20T04:37:53.565Z,77.51
2019-04-20T04:39:03.598Z,77.62
2019-04-20T04:40:00.981Z,78.79
2019-04-20T04:41:03.217Z,78.38
2019-04-20T04:42:01.850Z,78.48
2019-04-20T04:43:00.731Z,77.83
2019-04-20T04:43:53.825Z,77.86
2019-04-20T04:44:46.815Z,77.66
2019-04-20T04:45:36.972Z,78.17
2019-04-20T04:46:42.583Z,77.86
2019-04-20T04:47:36.749Z,78.38
2019-04-20T04:48:40.651Z,78.69
2019-04-20T04:49:40.070Z,78.79
2019-04-20T04:50:43.571Z,78.58
2019-04-20T04:51:44.644Z,78.38
2019-04-20T04:52:45.335Z,78.38
2019-04-20T04:53:47.607Z,80.13
2019-04-20T04:54:46.313Z,79.82
2019-04-20T04:55:45.705Z,79.14
2019-04-20T04:56:35.730Z,78.72
2019-04-20T04:57:34.718Z,80.13
2019-04-20T04:58:34.710Z,79.75
2019-04-20T04:59:34.721Z,79.61
2019-04-20T05:00:35.922Z,79.10
2019-04-20T05:01:37.000Z,79.00
2019-04-20T05:02:40.577Z,78.79
2019-04-20T05:03:58.203Z,79.00
2019-04-20T05:04:59.982Z,78.38
2019-04-20T05:05:54.610Z,77.55
2019-04-20T05:06:48.341Z,77.86
2019-04-20T05:07:47.777Z,79.00
2019-04-20T05:08:41.683Z,79.00
2019-04-20T05:09:35.916Z,78.69
2019-04-20T05:10:34.826Z,78.69
2019-04-20T05:11:35.453Z,78.48
2019-04-20T05:12:36.793Z,78.38
2019-04-20T05:13:42.883Z,78.65
2019-04-20T05:14:48.310Z,78.48
2019-04-20T05:15:48.436Z,78.38
2019-04-20T05:16:53.943Z,78.03
2019-04-20T05:17:58.027Z,78.38
2019-04-20T05:18:58.001Z,79.20
2019-04-20T05:19:55.299Z,79.00
2019-04-20T05:20:59.087Z,80.44
2019-04-20T05:22:01.365Z,82.19
2019-04-20T05:22:53.709Z,81.98
2019-04-20T05:23:47.914Z,81.26
2019-04-20T05:24:59.401Z,82.50
2019-04-20T05:25:57.092Z,77.18
2019-04-20T05:26:55.433Z,81.16
2019-04-20T05:27:56.249Z,83.12
2019-04-20T05:28:46.267Z,83.26
2019-04-20T05:29:37.856Z,82.70
2019-04-20T05:30:42.700Z,82.50
2019-04-20T05:31:43.176Z,83.32
2019-04-20T05:32:44.657Z,82.91
2019-04-20T05:34:04.146Z,83.26
2019-04-20T05:34:58.176Z,83.63
2019-04-20T05:35:58.480Z,83.12
2019-04-20T05:37:04.655Z,82.81
2019-04-20T05:38:05.112Z,83.01
2019-04-20T05:38:54.283Z,82.25
2019-04-20T05:40:00.195Z,81.67
2019-04-20T05:40:55.498Z,81.47
2019-04-20T05:41:51.461Z,83.49
2019-04-20T05:42:54.462Z,83.59
2019-04-20T05:43:50.598Z,83.28
2019-04-20T05:45:04.685Z,83.07
2019-04-20T05:45:49.911Z,83.70
2019-04-20T05:46:56.662Z,83.59
2019-04-20T05:47:54.850Z,84.00
2019-04-20T05:48:57.888Z,83.07
2019-04-20T05:49:56.088Z,83.18
2019-04-20T05:50:52.845Z,82.15
2019-04-20T05:51:54.670Z,83.39
2019-04-20T05:53:04.564Z,82.97
2019-04-20T05:53:59.216Z,83.14
2019-04-20T05:54:59.481Z,83.49
2019-04-20T05:55:54.674Z,82.63
2019-04-20T05:56:56.312Z,81.70
2019-04-20T05:57:58.927Z,82.42
2019-04-20T05:58:57.545Z,84.79
2019-04-20T06:00:01.817Z,85.10
2019-04-20T06:01:01.579Z,84.58
2019-04-20T06:01:59.192Z,83.51
2019-04-20T06:02:53.947Z,82.53
2019-04-20T06:03:56.795Z,83.31
2019-04-20T06:05:04.372Z,84.75
2019-04-20T06:06:03.186Z,84.64
2019-04-20T06:06:54.892Z,82.76
2019-04-20T06:07:54.905Z,83.58
2019-04-20T06:08:59.559Z,85.22
2019-04-20T06:09:59.798Z,85.08
2019-04-20T06:10:55.011Z,83.78
2019-04-20T06:12:07.797Z,85.18
2019-04-20T06:12:52.025Z,83.44
2019-04-20T06:13:47.141Z,84.74
2019-04-20T06:14:48.312Z,84.74
2019-04-20T06:15:53.818Z,84.08
2019-04-20T06:17:00.102Z,84.59
2019-04-20T06:17:55.389Z,84.69
2019-04-20T06:18:58.426Z,84.86
2019-04-20T06:19:51.971Z,84.41
2019-04-20T06:20:54.983Z,84.61
2019-04-20T06:22:02.137Z,84.52
2019-04-20T06:23:05.900Z,84.68
2019-04-20T06:23:56.674Z,85.09
2019-04-20T06:25:04.550Z,84.12
2019-04-20T06:27:00.885Z,84.09
2019-04-20T06:27:58.102Z,83.47
2019-04-20T06:28:46.514Z,82.92
2019-04-20T06:29:52.695Z,83.13
2019-04-20T06:30:44.303Z,84.01
2019-04-20T06:31:52.011Z,83.19
2019-04-20T06:33:02.989Z,82.64
2019-04-20T06:34:13.250Z,82.13
2019-04-20T06:34:58.532Z,81.68
2019-04-20T06:37:06.987Z,82.09
2019-04-20T06:38:03.142Z,82.77
2019-04-20T06:39:02.304Z,81.54
2019-04-20T06:39:54.661Z,80.89
2019-04-20T06:41:05.244Z,79.97
2019-04-20T06:42:58.625Z,79.73
2019-04-20T06:44:02.139Z,79.59
2019-04-20T06:44:57.807Z,80.00
2019-04-20T06:46:05.705Z,79.69
2019-04-20T06:47:02.769Z,80.30
2019-04-20T06:47:58.607Z,80.07
2019-04-20T06:49:05.343Z,80.47
2019-04-20T06:49:50.383Z,79.96
2019-04-20T06:50:49.524Z,79.96
2019-04-20T06:51:59.369Z,80.74
2019-04-20T06:52:55.045Z,81.21
2019-04-20T06:53:51.372Z,79.64
2019-04-20T06:54:55.959Z,77.61
2019-04-20T06:55:59.170Z,78.83
2019-04-20T06:56:54.532Z,77.67
2019-04-20T06:58:01.513Z,74.99
2019-04-20T06:58:58.847Z,72.75
2019-04-20T06:59:58.035Z,71.50
2019-04-20T07:00:58.372Z,70.68
2019-04-20T07:02:20.106Z,70.38
2019-04-20T07:02:54.345Z,70.99
2019-04-20T07:05:01.294Z,70.14
2019-04-20T07:06:08.511Z,69.53
2019-04-20T07:07:05.332Z,66.79
2019-04-20T07:08:07.088Z,68.82
2019-04-20T07:09:00.669Z,67.19
2019-04-20T07:10:08.870Z,67.71
2019-04-20T07:11:02.161Z,67.10
2019-04-20T07:11:54.732Z,67.97
2019-04-20T07:12:49.744Z,63.40
2019-04-20T07:13:46.117Z,65.54
2019-04-20T07:14:47.397Z,60.05
2019-04-20T07:15:49.580Z,63.71
2019-04-20T07:16:53.102Z,66.15
2019-04-20T07:17:57.526Z,63.28
2019-04-20T07:18:55.226Z,63.37
2019-04-20T07:19:52.729Z,63.95
2019-04-20T07:20:59.277Z,60.07
2019-04-20T07:23:02.226Z,58.72
2019-04-20T07:24:08.189Z,57.71
2019-04-20T07:24:56.719Z,61.16
2019-04-20T07:25:54.207Z,61.13
2019-04-20T07:26:59.194Z,62.85
2019-04-20T07:27:53.572Z,62.01
2019-04-20T07:29:00.699Z,60.69
2019-04-20T07:29:57.948Z,60.46
2019-04-20T07:31:05.715Z,60.39
2019-04-20T07:31:48.758Z,61.07
2019-04-20T07:33:09.100Z,60.66
2019-04-20T07:33:56.997Z,62.18
2019-04-20T07:34:55.631Z,61.75
2019-04-20T07:35:50.958Z,61.04
2019-04-20T07:37:17.730Z,56.48
2019-04-20T07:38:21.025Z,55.17
2019-04-20T07:38:56.656Z,55.07
2019-04-20T07:39:58.891Z,55.47
2019-04-20T07:40:49.998Z,57.29
2019-04-20T07:42:00.617Z,56.99
2019-04-20T07:43:00.235Z,56.66
2019-04-20T07:44:04.467Z,54.53
2019-04-20T07:45:01.807Z,55.24
2019-04-20T07:45:56.910Z,55.35
2019-04-20T07:47:05.115Z,54.51
2019-04-20T07:48:01.650Z,53.63
2019-04-20T07:48:55.322Z,55.44
2019-04-20T07:49:49.661Z,55.62
2019-04-20T07:50:45.020Z,52.28
2019-04-20T07:51:37.567Z,52.48
2019-04-20T07:52:46.266Z,52.19
2019-04-20T07:53:57.557Z,49.43
2019-04-20T07:55:12.149Z,50.24
2019-04-20T07:55:56.338Z,50.24
2019-04-20T07:56:57.541Z,48.22
2019-04-20T07:57:47.398Z,48.32
2019-04-20T07:58:44.166Z,49.93
2019-04-20T07:59:52.829Z,50.74
2019-04-20T08:01:05.207Z,51.05
2019-04-20T08:02:04.336Z,51.05
2019-04-20T08:02:57.491Z,50.74
2019-04-20T08:03:55.700Z,50.44
2019-04-20T08:04:52.365Z,51.76
2019-04-20T08:05:46.700Z,52.06
2019-04-20T08:06:40.730Z,50.32
2019-04-20T08:07:45.258Z,51.55
2019-04-20T08:08:49.281Z,52.16
2019-04-20T08:09:42.115Z,51.45
2019-04-20T08:10:52.340Z,49.73
2019-04-20T08:11:56.558Z,51.96
2019-04-20T08:13:02.142Z,53.17
2019-04-20T08:13:56.902Z,52.23
2019-04-20T08:14:56.895Z,52.21
2019-04-20T08:15:57.248Z,52.74
2019-04-20T08:17:09.152Z,53.12
2019-04-20T08:18:07.679Z,51.89
2019-04-20T08:18:53.798Z,51.38
2019-04-20T08:19:54.948Z,51.91
2019-04-20T08:20:58.490Z,53.12
2019-04-20T08:21:52.190Z,52.31
2019-04-20T08:22:55.246Z,52.89
2019-04-20T08:23:52.143Z,53.32
2019-04-20T08:24:49.925Z,55.11
2019-04-20T08:25:45.468Z,53.50
2019-04-20T08:26:43.416Z,54.81
2019-04-20T08:27:33.859Z,52.76
2019-04-20T08:28:42.587Z,52.56
2019-04-20T08:29:47.444Z,51.93
2019-04-20T08:30:48.646Z,49.62
2019-04-20T08:31:51.443Z,50.73
2019-04-20T08:32:50.650Z,49.92
2019-04-20T08:34:04.485Z,49.39
2019-04-20T08:34:56.601Z,50.20
2019-04-20T08:36:01.276Z,50.20
2019-04-20T08:36:58.549Z,49.29
2019-04-20T08:38:14.840Z,50.57
2019-04-20T08:40:53.912Z,49.24
2019-04-20T08:41:56.325Z,46.02
2019-04-20T08:43:02.778Z,46.60
2019-04-20T08:44:21.443Z,41.79
2019-04-20T08:45:00.062Z,43.48
2019-04-20T08:45:55.308Z,43.18
2019-04-20T08:47:03.872Z,42.07
2019-04-20T08:47:56.984Z,43.16
2019-04-20T08:48:56.775Z,43.46
2019-04-20T08:50:01.718Z,43.46
2019-04-20T08:50:50.695Z,45.47
2019-04-20T08:52:05.914Z,43.64
2019-04-20T08:53:16.867Z,43.04
2019-04-20T08:53:53.315Z,46.23
2019-04-20T08:54:49.888Z,45.43
2019-04-20T08:55:45.345Z,42.72
2019-04-20T08:56:42.397Z,43.12
2019-04-20T08:57:33.590Z,43.60
2019-04-20T08:58:32.112Z,39.69
2019-04-20T08:59:33.939Z,40.69
2019-04-20T09:00:39.533Z,43.50
2019-04-20T09:01:35.713Z,43.38
2019-04-20T09:02:32.707Z,44.56
2019-04-20T09:03:43.843Z,40.45
2019-04-20T09:04:43.123Z,42.96
2019-04-20T09:05:45.569Z,44.24
2019-04-20T09:06:45.650Z,44.67
2019-04-20T09:07:38.957Z,44.36
2019-04-20T09:08:46.638Z,45.47
2019-04-20T09:09:52.727Z,46.85
2019-04-20T09:10:49.213Z,43.22
2019-04-20T09:11:58.500Z,42.52
2019-04-20T09:12:49.386Z,43.02
2019-04-20T09:13:40.632Z,41.91
2019-04-20T09:14:35.171Z,44.42
2019-04-20T09:15:32.099Z,44.62
2019-04-20T09:16:40.954Z,46.03
2019-04-20T09:17:40.999Z,45.50
2019-04-20T09:18:43.299Z,44.50
2019-04-20T09:19:41.723Z,43.08
2019-04-20T09:20:46.240Z,43.40
2019-04-20T09:21:43.701Z,42.68
2019-04-20T09:22:44.520Z,44.70
2019-04-20T09:23:45.903Z,45.28
2019-04-20T09:24:52.888Z,44.28
2019-04-20T09:26:06.229Z,44.68
2019-04-20T09:26:47.757Z,41.15
2019-04-20T09:27:41.377Z,43.05
2019-04-20T09:28:39.602Z,47.34
2019-04-20T09:29:44.886Z,46.54
2019-04-20T09:30:42.881Z,43.91
2019-04-20T09:31:46.951Z,44.01
2019-04-20T09:32:43.941Z,42.61
2019-04-20T09:33:54.153Z,41.11
2019-04-20T09:34:53.178Z,42.82
2019-04-20T09:35:52.339Z,44.62
2019-04-20T09:36:46.243Z,42.40
2019-04-20T09:37:49.632Z,43.29
2019-04-20T09:38:44.288Z,43.57
2019-04-20T09:39:51.392Z,39.98
2019-04-20T09:40:51.097Z,40.47
2019-04-20T09:41:54.903Z,39.28
2019-04-20T09:42:32.647Z,39.37
2019-04-20T09:43:32.388Z,40.97
2019-04-20T09:44:38.690Z,37.58
2019-04-20T09:45:38.186Z,37.68
2019-04-20T09:46:37.783Z,38.98
2019-04-20T09:47:36.832Z,39.58
2019-04-20T09:48:40.188Z,44.17
2019-04-20T09:49:42.862Z,42.57
2019-04-20T09:50:56.461Z,38.06
2019-04-20T09:51:49.955Z,41.96
2019-04-20T09:52:52.634Z,43.15
2019-04-20T09:53:43.133Z,40.53
2019-04-20T09:54:52.435Z,38.84
2019-04-20T09:55:47.321Z,38.72
2019-04-20T09:56:55.026Z,39.32
2019-04-20T09:57:50.130Z,39.32
2019-04-20T09:58:55.248Z,41.71
2019-04-20T09:59:52.864Z,42.32
2019-04-20T10:00:48.789Z,41.00
2019-04-20T10:01:40.237Z,39.50
2019-04-20T10:02:36.097Z,39.90
2019-04-20T10:03:32.426Z,36.71
2019-04-20T10:04:31.406Z,39.18
2019-04-20T10:05:31.575Z,41.47
2019-04-20T10:06:34.546Z,42.07
2019-04-20T10:07:35.216Z,36.99
2019-04-20T10:08:34.073Z,35.89
2019-04-20T10:09:37.601Z,40.18
2019-04-20T10:10:38.972Z,40.78
2019-04-20T10:11:32.321Z,39.36
2019-04-20T10:12:31.580Z,37.07
2019-04-20T10:13:32.190Z,39.26
2019-04-20T10:14:31.292Z,39.44
2019-04-20T10:15:32.747Z,41.63
2019-04-20T10:16:31.535Z,36.46
2019-04-20T10:17:33.245Z,39.32
2019-04-20T10:18:34.287Z,38.73
2019-04-20T10:19:34.665Z,40.52
2019-04-20T10:20:35.303Z,40.62
2019-04-20T10:21:32.220Z,40.32
2019-04-20T10:22:31.232Z,40.10
2019-04-20T10:23:32.500Z,38.61
2019-04-20T10:24:32.667Z,34.43
2019-04-20T10:25:31.186Z,36.32
2019-04-20T10:26:32.335Z,39.90
2019-04-20T10:27:32.615Z,36.32
2019-04-20T10:28:31.826Z,38.51
2019-04-20T10:29:31.362Z,40.38
2019-04-20T10:30:32.459Z,40.48
2019-04-20T10:31:35.769Z,37.70
2019-04-20T10:32:37.679Z,37.99
2019-04-20T10:33:33.437Z,38.07
2019-04-20T10:34:31.084Z,40.46
2019-04-20T10:35:31.720Z,37.08
2019-04-20T10:36:31.068Z,32.62
2019-04-20T10:37:33.534Z,32.84
2019-04-20T10:38:34.093Z,38.51
2019-04-20T10:39:31.061Z,33.34
2019-04-20T10:40:44.808Z,37.92
2019-04-20T10:41:40.928Z,35.03
2019-04-20T10:42:32.262Z,33.93
2019-04-20T10:43:30.993Z,36.30
2019-04-20T10:44:31.004Z,35.31
2019-04-20T10:45:31.006Z,40.18
2019-04-20T10:46:31.168Z,38.07
2019-04-20T10:47:31.009Z,37.28
2019-04-20T10:48:37.607Z,35.10
2019-04-20T10:49:33.147Z,35.79
2019-04-20T10:50:31.245Z,35.89
2019-04-20T10:51:31.471Z,37.18
2019-04-20T10:52:31.984Z,32.59
2019-04-20T10:53:32.098Z,34.10
2019-04-20T10:54:34.385Z,32.89
2019-04-20T10:55:31.474Z,33.18
2019-04-20T10:56:31.721Z,34.28
2019-04-20T10:57:31.247Z,36.35
2019-04-20T10:58:31.742Z,35.75
2019-04-20T10:59:31.834Z,33.36
2019-04-20T11:00:31.365Z,31.37
2019-04-20T11:01:31.643Z,33.76
2019-04-20T11:02:31.891Z,38.32
2019-04-20T11:03:30.784Z,33.97
2019-04-20T11:04:30.780Z,31.38
2019-04-20T11:05:30.793Z,36.63
2019-04-20T11:06:30.757Z,31.96
2019-04-20T11:07:30.783Z,29.98
2019-04-20T11:08:30.771Z,30.29
2019-04-20T11:09:30.732Z,30.79
2019-04-20T11:10:46.794Z,31.67
2019-04-20T11:11:33.558Z,32.56
2019-04-20T11:12:30.699Z,34.74
2019-04-20T11:13:30.689Z,39.51
2019-04-20T11:14:34.794Z,37.11
2019-04-20T11:15:32.475Z,33.83
2019-04-20T11:16:30.692Z,34.83
2019-04-20T11:17:31.819Z,33.33
2019-04-20T11:18:31.375Z,29.16
2019-04-20T11:19:31.567Z,29.25
2019-04-20T11:20:31.059Z,31.62
2019-04-20T11:21:30.618Z,29.24
2019-04-20T11:22:30.648Z,28.15
2019-04-20T11:23:32.017Z,27.56
2019-04-20T11:24:30.572Z,28.05
2019-04-20T11:25:30.552Z,32.12
2019-04-20T11:26:31.769Z,29.14
2019-04-20T11:27:30.543Z,28.94
2019-04-20T11:28:30.525Z,31.60
2019-04-20T11:29:31.786Z,29.33
2019-04-20T11:30:30.516Z,30.91
2019-04-20T11:31:37.351Z,27.74
2019-04-20T11:32:31.498Z,29.23
2019-04-20T11:33:30.478Z,29.33
2019-04-20T11:34:33.991Z,27.34
2019-04-20T11:35:37.255Z,29.11
2019-04-20T11:36:32.712Z,28.32
2019-04-20T11:37:31.043Z,25.26
2019-04-20T11:38:30.423Z,24.57
2019-04-20T11:39:30.408Z,28.75
2019-04-20T11:40:30.815Z,27.44
2019-04-20T11:41:33.638Z,28.14
2019-04-20T11:42:30.416Z,33.19
2019-04-20T11:43:31.493Z,24.76
2019-04-20T11:44:32.177Z,26.44
2019-04-20T11:45:30.915Z,25.35
2019-04-20T11:46:30.518Z,25.45
2019-04-20T11:47:31.594Z,28.42
2019-04-20T11:48:31.618Z,26.34
2019-04-20T11:49:31.344Z,28.03
2019-04-20T11:50:31.601Z,26.44
2019-04-20T11:51:31.654Z,26.64
2019-04-20T11:52:32.611Z,26.26
2019-04-20T11:53:32.230Z,26.55
2019-04-20T11:54:30.508Z,27.84
2019-04-20T11:55:30.685Z,26.26
2019-04-20T11:56:36.197Z,26.07
2019-04-20T11:57:31.313Z,27.16
2019-04-20T11:58:30.401Z,27.25
2019-04-20T11:59:30.601Z,29.13
2019-04-20T12:00:37.064Z,28.93
2019-04-20T12:01:39.244Z,31.29
2019-04-20T12:02:37.104Z,26.14
2019-04-20T12:03:41.499Z,26.45
2019-04-20T12:04:41.431Z,28.81
2019-04-20T12:05:38.068Z,27.63
2019-04-20T12:06:31.121Z,27.51
2019-04-20T12:07:32.311Z,27.12
2019-04-20T12:08:32.175Z,26.13
2019-04-20T12:09:31.291Z,27.42
2019-04-20T12:10:31.587Z,27.91
2019-04-20T12:11:39.698Z,28.90
2019-04-20T12:12:39.149Z,27.42
2019-04-20T12:13:31.228Z,25.24
2019-04-20T12:14:30.490Z,28.70
2019-04-20T12:15:32.155Z,27.51
2019-04-20T12:16:30.018Z,28.80
2019-04-20T12:17:31.394Z,27.42
2019-04-20T12:18:29.994Z,25.34
2019-04-20T12:19:31.185Z,25.74
2019-04-20T12:20:29.968Z,36.74
2019-04-20T12:21:30.734Z,28.12
2019-04-20T12:22:30.380Z,36.24
2019-04-20T12:23:30.647Z,32.07
2019-04-20T12:24:31.187Z,36.03
2019-04-20T12:25:32.882Z,26.51
2019-04-20T12:26:31.010Z,27.11
2019-04-20T12:27:30.468Z,28.59
2019-04-20T12:28:29.880Z,29.68
2019-04-20T12:29:29.991Z,34.13
2019-04-20T12:30:30.032Z,31.36
2019-04-20T12:31:29.850Z,28.09
2019-04-20T12:32:37.156Z,26.62
2019-04-20T12:33:30.826Z,27.72
2019-04-20T12:34:30.714Z,26.43
2019-04-20T12:35:30.026Z,27.51
2019-04-20T12:36:30.217Z,29.30
2019-04-20T12:37:31.214Z,27.32
2019-04-20T12:38:30.800Z,26.23
2019-04-20T12:39:31.136Z,27.62
2019-04-20T12:40:30.163Z,29.30
2019-04-20T12:41:37.887Z,27.62
2019-04-20T12:42:30.897Z,27.62
2019-04-20T12:43:29.892Z,26.43
2019-04-20T12:44:32.088Z,26.23
2019-04-20T12:45:29.767Z,29.69
2019-04-20T12:46:29.832Z,27.91
2019-04-20T12:47:33.824Z,27.60
2019-04-20T12:48:29.814Z,27.80
2019-04-20T12:49:29.685Z,27.90
2019-04-20T12:50:29.869Z,37.38
2019-04-20T12:51:33.763Z,28.97
2019-04-20T12:52:30.618Z,27.69
2019-04-20T12:53:30.717Z,30.55
2019-04-20T12:54:29.634Z,26.89
2019-04-20T12:55:30.532Z,36.97
2019-04-20T12:56:30.654Z,27.18
2019-04-20T12:57:29.563Z,27.67
2019-04-20T12:58:30.592Z,25.90
2019-04-20T12:59:29.720Z,25.10
2019-04-20T13:00:29.758Z,25.60
2019-04-20T13:01:30.214Z,25.21
2019-04-20T13:02:29.511Z,26.09
2019-04-20T13:03:29.749Z,26.19
2019-04-20T13:04:30.179Z,24.13
2019-04-20T13:05:29.711Z,24.93
2019-04-20T13:06:30.054Z,26.02
2019-04-20T13:07:31.553Z,24.54
2019-04-20T13:08:36.869Z,24.35
2019-04-20T13:09:30.631Z,25.24
2019-04-20T13:10:29.635Z,25.74
2019-04-20T13:11:30.812Z,28.03